Time;durP1;ratioP1;P1;durP2;ratioP2;P2;SDS_P1;SDS_P2;PMS_P1;PMS_P2;Temp;Humidity;BMP_temperature;BMP_pressure;BME280_temperature;BME280_humidity;BME280_pressure;Samples;Min_cycle;Max_cycle;Signal;HPM_P1;HPM_P2
2023/08/05 00:00:18;;;;;;;0.40;0.40;;;;;;;;;;5090030;28;20051;-79
2023/08/05 00:02:44;;;;;;;0.20;0.20;;;;;;;;;;5090831;28;20055;-79
2023/08/05 00:05:10;;;;;;;0.30;0.30;;;;;;;;;;5074287;28;20427;-79
2023/08/05 00:07:37;;;;;;;0.30;0.30;;;;;;;;;;5073594;28;20081;-79
2023/08/05 00:10:03;;;;;;;0.20;0.20;;;;;;;;;;5085113;28;20139;-79
2023/08/05 00:12:29;;;;;;;0.52;0.52;;;;;;;;;;5087786;28;20130;-80
2023/08/05 00:14:55;;;;;;;0.30;0.30;;;;;;;;;;5090303;28;20050;-79
2023/08/05 00:17:21;;;;;;;0.40;0.40;;;;;;;;;;5089555;28;20107;-79
2023/08/05 00:19:47;;;;;;;0.50;0.50;;;;;;;;;;5089372;28;20127;-79
2023/08/05 00:22:13;;;;;;;0.30;0.30;;;;;;;;;;5089040;28;20043;-79
2023/08/05 00:24:40;;;;;;;0.40;0.40;;;;;;;;;;5089360;28;20134;-79
2023/08/05 00:27:06;;;;;;;0.30;0.30;;;;;;;;;;5089501;28;20043;-79
2023/08/05 00:29:32;;;;;;;0.47;0.47;;;;;;;;;;5088676;28;20058;-79
2023/08/05 00:31:58;;;;;;;0.60;0.60;;;;;;;;;;5089659;28;20493;-80
2023/08/05 00:34:24;;;;;;;0.40;0.40;;;;;;;;;;5090215;28;20076;-79
2023/08/05 00:36:50;;;;;;;0.40;0.40;;;;;;;;;;5089369;28;20556;-79
2023/08/05 00:39:18;;;;;;;0.40;0.40;;;;;;;;;;5090272;28;20704;-79
2023/08/05 00:41:45;;;;;;;0.40;0.40;;;;;;;;;;5089718;28;20060;-79
2023/08/05 00:44:11;;;;;;;0.40;0.40;;;;;;;;;;5090163;28;20055;-79
2023/08/05 00:46:37;;;;;;;0.68;0.65;;;;;;;;;;5087928;28;20043;-79
2023/08/05 00:49:03;;;;;;;0.85;0.70;;;;;;;;;;5089884;28;20051;-79
2023/08/05 00:51:30;;;;;;;0.40;0.40;;;;;;;;;;5089642;28;20054;-79
2023/08/05 00:53:57;;;;;;;0.30;0.30;;;;;;;;;;5087514;28;20090;-79
2023/08/05 00:56:24;;;;;;;0.30;0.30;;;;;;;;;;5089493;28;20048;-79
2023/08/05 00:58:50;;;;;;;0.52;0.52;;;;;;;;;;5089646;28;20068;-79
2023/08/05 01:01:16;;;;;;;0.32;0.32;;;;;;;;;;5090022;28;20683;-79
2023/08/05 01:03:42;;;;;;;0.30;0.30;;;;;;;;;;5089562;28;20050;-79
2023/08/05 01:06:08;;;;;;;0.40;0.40;;;;;;;;;;5086950;28;20039;-79
2023/08/05 01:08:34;;;;;;;0.40;0.40;;;;;;;;;;5089201;28;20569;-79
2023/08/05 01:11:04;;;;;;;0.38;0.38;;;;;;;;;;5084061;28;20096;-78
2023/08/05 01:13:33;;;;;;;0.40;0.40;;;;;;;;;;5088773;28;20037;-79
2023/08/05 01:15:59;;;;;;;0.40;0.40;;;;;;;;;;5088837;28;20043;-79
2023/08/05 01:18:26;;;;;;;0.40;0.40;;;;;;;;;;5089285;28;20106;-79
2023/08/05 01:20:54;;;;;;;1.13;0.85;;;;;;;;;;5068325;28;20051;-79
2023/08/05 01:23:30;;;;;;;0.38;0.38;;;;;;;;;;5089322;28;20043;-79
2023/08/05 01:25:56;;;;;;;0.52;0.52;;;;;;;;;;5088333;28;20039;-79
2023/08/05 01:28:22;;;;;;;0.60;0.60;;;;;;;;;;5067736;28;20044;-79
2023/08/05 01:30:48;;;;;;;0.30;0.30;;;;;;;;;;5085300;28;20135;-79
2023/08/05 01:33:15;;;;;;;0.55;0.55;;;;;;;;;;5068281;28;20044;-79
2023/08/05 01:35:47;;;;;;;0.40;0.40;;;;;;;;;;5066271;28;20433;-79
2023/08/05 01:38:13;;;;;;;0.40;0.40;;;;;;;;;;5067179;28;20047;-79
2023/08/05 01:40:39;;;;;;;0.93;0.60;;;;;;;;;;5071408;28;20048;-79
2023/08/05 01:43:05;;;;;;;0.40;0.40;;;;;;;;;;5072479;28;20377;-79
2023/08/05 01:45:31;;;;;;;0.30;0.30;;;;;;;;;;5061102;28;20052;-79
2023/08/05 01:47:57;;;;;;;0.40;0.40;;;;;;;;;;5070574;28;20386;-79
2023/08/05 01:50:23;;;;;;;0.50;0.50;;;;;;;;;;5071510;28;20047;-79
2023/08/05 01:52:49;;;;;;;0.50;0.50;;;;;;;;;;5070668;28;20052;-79
2023/08/05 01:55:15;;;;;;;0.32;0.32;;;;;;;;;;5059528;28;20036;-79
2023/08/05 01:57:41;;;;;;;0.50;0.50;;;;;;;;;;5063711;28;20236;-79
2023/08/05 02:00:08;;;;;;;0.40;0.40;;;;;;;;;;5051952;28;20051;-79
2023/08/05 02:02:34;;;;;;;0.63;0.55;;;;;;;;;;5068239;28;20141;-79
2023/08/05 02:05:00;;;;;;;0.32;0.32;;;;;;;;;;5069646;28;20044;-79
2023/08/05 02:07:26;;;;;;;0.60;0.60;;;;;;;;;;5074829;28;20040;-79
2023/08/05 02:09:52;;;;;;;0.32;0.32;;;;;;;;;;5077829;28;20044;-79
2023/08/05 02:12:18;;;;;;;0.55;0.55;;;;;;;;;;5079928;28;20378;-79
2023/08/05 02:14:44;;;;;;;0.30;0.30;;;;;;;;;;5087045;28;20055;-79
2023/08/05 02:17:10;;;;;;;0.40;0.40;;;;;;;;;;5071380;28;20459;-79
2023/08/05 02:19:36;;;;;;;0.40;0.40;;;;;;;;;;5076791;28;20044;-79
2023/08/05 02:22:03;;;;;;;0.38;0.38;;;;;;;;;;5073259;28;20444;-79
2023/08/05 02:24:29;;;;;;;0.20;0.20;;;;;;;;;;5072028;28;20075;-78
2023/08/05 02:26:55;;;;;;;0.40;0.40;;;;;;;;;;5079452;28;20116;-79
2023/08/05 02:29:21;;;;;;;0.38;0.38;;;;;;;;;;5054365;28;20040;-79
2023/08/05 02:31:47;;;;;;;0.30;0.30;;;;;;;;;;5067002;28;20040;-79
2023/08/05 02:34:13;;;;;;;0.40;0.40;;;;;;;;;;5071866;28;20032;-79
2023/08/05 02:36:40;;;;;;;0.40;0.40;;;;;;;;;;5073765;28;20158;-79
2023/08/05 02:39:06;;;;;;;0.30;0.30;;;;;;;;;;5077158;28;20044;-78
2023/08/05 02:41:32;;;;;;;0.40;0.40;;;;;;;;;;5073128;28;20122;-79
2023/08/05 02:43:58;;;;;;;0.52;0.52;;;;;;;;;;5072294;28;20048;-79
2023/08/05 02:46:24;;;;;;;0.32;0.32;;;;;;;;;;5071784;28;20191;-79
2023/08/05 02:48:50;;;;;;;0.47;0.47;;;;;;;;;;5055538;28;20523;-79
2023/08/05 02:51:16;;;;;;;0.22;0.22;;;;;;;;;;5070668;28;20519;-79
2023/08/05 02:53:42;;;;;;;0.70;0.70;;;;;;;;;;5068776;28;20044;-78
2023/08/05 02:56:08;;;;;;;0.30;0.30;;;;;;;;;;5076242;28;20048;-79
2023/08/05 02:58:34;;;;;;;0.82;0.82;;;;;;;;;;5071645;28;20047;-79
2023/08/05 03:01:08;;;;;;;0.50;0.50;;;;;;;;;;5058135;28;20067;-79
2023/08/05 03:03:35;;;;;;;0.40;0.40;;;;;;;;;;5071822;28;20090;-79
2023/08/05 03:06:03;;;;;;;0.50;0.50;;;;;;;;;;5071724;28;20044;-79
2023/08/05 03:08:29;;;;;;;;;;;;;;;;;;5068744;28;20123;-79
2023/08/05 03:11:02;;;;;;;0.95;0.77;;;;;;;;;;5079057;28;19975;-77
2023/08/05 03:13:29;;;;;;;0.32;0.32;;;;;;;;;;5076904;28;20493;-78
2023/08/05 03:15:55;;;;;;;0.40;0.40;;;;;;;;;;5066323;28;20044;-78
2023/08/05 03:18:21;;;;;;;0.30;0.30;;;;;;;;;;5075301;28;20155;-78
2023/08/05 03:20:48;;;;;;;1.98;1.15;;;;;;;;;;5071095;28;20039;-79
2023/08/05 03:23:14;;;;;;;0.30;0.30;;;;;;;;;;5068762;28;20086;-78
2023/08/05 03:25:40;;;;;;;0.45;0.45;;;;;;;;;;5057198;28;20048;-79
2023/08/05 03:28:06;;;;;;;0.63;0.63;;;;;;;;;;5086239;28;20052;-79
2023/08/05 03:30:32;;;;;;;0.30;0.30;;;;;;;;;;5057373;28;20056;-79
2023/08/05 03:32:58;;;;;;;0.40;0.40;;;;;;;;;;5070278;28;20032;-78
2023/08/05 03:35:24;;;;;;;0.63;0.63;;;;;;;;;;5070576;28;20043;-78
2023/08/05 03:37:50;;;;;;;0.50;0.50;;;;;;;;;;5072290;28;20056;-79
2023/08/05 03:40:16;;;;;;;0.50;0.50;;;;;;;;;;5084328;28;20044;-79
2023/08/05 03:42:42;;;;;;;0.38;0.38;;;;;;;;;;5087394;28;20040;-78
2023/08/05 03:45:09;;;;;;;0.30;0.30;;;;;;;;;;5084595;28;20040;-79
2023/08/05 03:47:35;;;;;;;0.52;0.52;;;;;;;;;;5070095;28;20043;-78
2023/08/05 03:50:01;;;;;;;0.60;0.60;;;;;;;;;;5087793;28;20090;-79
2023/08/05 03:52:27;;;;;;;0.40;0.40;;;;;;;;;;5087814;28;20068;-78
2023/08/05 03:54:54;;;;;;;0.38;0.38;;;;;;;;;;5077115;28;20596;-78
2023/08/05 03:57:20;;;;;;;0.38;0.38;;;;;;;;;;5087769;28;20075;-78
2023/08/05 03:59:47;;;;;;;0.77;0.60;;;;;;;;;;5084114;28;20098;-78
2023/08/05 04:02:14;;;;;;;0.52;0.52;;;;;;;;;;5086596;28;20077;-78
2023/08/05 04:04:42;;;;;;;0.40;0.40;;;;;;;;;;5087306;28;20149;-78
2023/08/05 04:07:08;;;;;;;0.32;0.32;;;;;;;;;;5086695;28;20085;-79
2023/08/05 04:09:36;;;;;;;0.50;0.50;;;;;;;;;;5066815;28;20036;-79
2023/08/05 04:12:05;;;;;;;0.37;0.37;;;;;;;;;;5065327;28;20051;-78
2023/08/05 04:14:32;;;;;;;0.30;0.30;;;;;;;;;;5066203;28;20546;-79
2023/08/05 04:16:59;;;;;;;0.50;0.50;;;;;;;;;;5076753;28;20401;-79
2023/08/05 04:19:28;;;;;;;0.98;0.88;;;;;;;;;;5061915;28;20497;-78
2023/08/05 04:21:55;;;;;;;0.30;0.30;;;;;;;;;;5074057;28;20047;-79
2023/08/05 04:24:24;;;;;;;0.40;0.40;;;;;;;;;;5070152;28;20047;-78
2023/08/05 04:26:50;;;;;;;0.50;0.50;;;;;;;;;;5069491;28;20619;-79
2023/08/05 04:29:22;;;;;;;0.40;0.40;;;;;;;;;;5067316;28;20048;-78
2023/08/05 04:31:48;;;;;;;0.30;0.30;;;;;;;;;;5066827;28;20270;-78
2023/08/05 04:34:14;;;;;;;0.38;0.38;;;;;;;;;;5050344;28;20060;-78
2023/08/05 04:36:40;;;;;;;0.30;0.30;;;;;;;;;;5062237;28;20056;-78
2023/08/05 04:39:07;;;;;;;0.40;0.40;;;;;;;;;;5057530;28;20051;-78
2023/08/05 04:41:33;;;;;;;1.15;1.05;;;;;;;;;;5060131;28;20052;-79
2023/08/05 04:43:59;;;;;;;0.47;0.47;;;;;;;;;;5065471;28;20577;-79
2023/08/05 04:46:25;;;;;;;0.40;0.40;;;;;;;;;;5069272;28;20416;-79
2023/08/05 04:48:51;;;;;;;0.30;0.30;;;;;;;;;;5065749;28;20048;-79
2023/08/05 04:51:17;;;;;;;0.40;0.40;;;;;;;;;;5069873;28;20847;-79
2023/08/05 04:53:44;;;;;;;0.45;0.45;;;;;;;;;;5066201;28;20048;-79
2023/08/05 04:56:10;;;;;;;0.40;0.40;;;;;;;;;;5062841;28;20117;-79
2023/08/05 04:58:36;;;;;;;0.50;0.50;;;;;;;;;;5062546;28;20079;-79
2023/08/05 05:01:02;;;;;;;0.40;0.40;;;;;;;;;;5068627;28;20059;-79
2023/08/05 05:03:28;;;;;;;0.40;0.40;;;;;;;;;;5070355;28;20040;-79
2023/08/05 05:05:55;;;;;;;0.47;0.47;;;;;;;;;;5060860;28;20130;-78
2023/08/05 05:08:23;;;;;;;0.40;0.40;;;;;;;;;;5049909;28;20062;-79
2023/08/05 05:10:49;;;;;;;0.10;0.10;;;;;;;;;;5065743;28;20765;-79
2023/08/05 05:13:15;;;;;;;0.40;0.40;;;;;;;;;;5053879;28;20050;-79
2023/08/05 05:15:41;;;;;;;0.30;0.30;;;;;;;;;;5052553;28;20493;-80
2023/08/05 05:18:07;;;;;;;0.40;0.40;;;;;;;;;;5046430;28;20373;-79
2023/08/05 05:20:34;;;;;;;0.40;0.40;;;;;;;;;;5070286;28;20056;-79
2023/08/05 05:23:00;;;;;;;0.30;0.30;;;;;;;;;;5068609;28;20051;-79
2023/08/05 05:25:26;;;;;;;0.52;0.45;;;;;;;;;;5070595;28;20044;-79
2023/08/05 05:27:53;;;;;;;0.30;0.30;;;;;;;;;;5045607;28;20445;-79
2023/08/05 05:30:19;;;;;;;0.35;0.35;;;;;;;;;;5032014;28;20551;-79
2023/08/05 05:32:45;;;;;;;0.40;0.40;;;;;;;;;;5018087;28;20045;-79
2023/08/05 05:35:11;;;;;;;0.38;0.38;;;;;;;;;;5041514;28;20118;-80
2023/08/05 05:37:37;;;;;;;0.55;0.55;;;;;;;;;;5049125;28;20409;-80
2023/08/05 05:40:03;;;;;;;0.32;0.32;;;;;;;;;;5034321;28;20047;-80
2023/08/05 05:42:30;;;;;;;0.30;0.30;;;;;;;;;;5043292;28;20505;-80
2023/08/05 05:44:59;;;;;;;0.50;0.50;;;;;;;;;;5036454;28;20072;-79
2023/08/05 05:47:25;;;;;;;0.40;0.40;;;;;;;;;;5035838;28;20060;-79
2023/08/05 05:49:51;;;;;;;0.30;0.30;;;;;;;;;;5051318;28;20049;-80
2023/08/05 05:52:17;;;;;;;0.47;0.47;;;;;;;;;;5052400;28;20040;-79
2023/08/05 05:54:44;;;;;;;0.57;0.47;;;;;;;;;;5049963;28;20039;-79
2023/08/05 05:57:10;;;;;;;0.30;0.30;;;;;;;;;;5045682;28;20049;-79
2023/08/05 05:59:37;;;;;;;0.60;0.60;;;;;;;;;;5049462;28;20040;-80
2023/08/05 06:02:04;;;;;;;0.30;0.30;;;;;;;;;;5051364;28;20048;-79
2023/08/05 06:04:30;;;;;;;0.52;0.52;;;;;;;;;;5030718;28;20048;-79
2023/08/05 06:06:56;;;;;;;0.40;0.40;;;;;;;;;;5040137;28;20064;-80
2023/08/05 06:09:22;;;;;;;0.20;0.20;;;;;;;;;;5042365;28;20053;-80
2023/08/05 06:11:48;;;;;;;0.45;0.45;;;;;;;;;;5044327;28;20041;-80
2023/08/05 06:14:15;;;;;;;0.75;0.65;;;;;;;;;;5034091;28;20045;-80
2023/08/05 06:16:41;;;;;;;0.32;0.32;;;;;;;;;;5046587;28;20041;-80
2023/08/05 06:19:08;;;;;;;0.50;0.50;;;;;;;;;;5052901;28;20040;-79
2023/08/05 06:21:34;;;;;;;0.28;0.28;;;;;;;;;;5034548;28;20032;-79
2023/08/05 06:24:00;;;;;;;0.65;0.65;;;;;;;;;;5048905;28;20063;-82
2023/08/05 06:26:26;;;;;;;1.17;0.75;;;;;;;;;;5052041;28;20044;-78
2023/08/05 06:28:52;;;;;;;0.50;0.50;;;;;;;;;;5068441;28;20542;-80
2023/08/05 06:31:18;;;;;;;0.70;0.70;;;;;;;;;;5075557;28;20083;-82
2023/08/05 06:33:45;;;;;;;0.40;0.40;;;;;;;;;;5078544;28;20048;-83
2023/08/05 06:36:11;;;;;;;1.05;0.75;;;;;;;;;;5074762;28;20063;-81
2023/08/05 06:38:37;;;;;;;0.70;0.70;;;;;;;;;;5064421;28;20084;-81
2023/08/05 06:41:06;;;;;;;0.63;0.63;;;;;;;;;;5072586;28;20036;-81
2023/08/05 06:43:32;;;;;;;0.65;0.65;;;;;;;;;;5050922;28;20103;-80
2023/08/05 06:45:58;;;;;;;0.30;0.30;;;;;;;;;;5080317;28;20093;-83
2023/08/05 06:48:24;;;;;;;0.50;0.50;;;;;;;;;;5055825;28;20059;-82
2023/08/05 06:50:51;;;;;;;0.40;0.40;;;;;;;;;;5072506;28;20040;-82
2023/08/05 06:53:17;;;;;;;4.80;1.33;;;;;;;;;;5068727;28;20052;-82
2023/08/05 06:55:45;;;;;;;0.40;0.38;;;;;;;;;;5074615;28;20389;-82
2023/08/05 06:58:11;;;;;;;0.40;0.40;;;;;;;;;;5068260;28;20055;-82
2023/08/05 07:00:37;;;;;;;0.38;0.38;;;;;;;;;;5070223;28;20074;-81
2023/08/05 07:03:04;;;;;;;0.63;0.63;;;;;;;;;;5059129;28;20098;-82
2023/08/05 07:05:30;;;;;;;0.30;0.30;;;;;;;;;;5071865;28;20048;-81
2023/08/05 07:07:56;;;;;;;0.45;0.45;;;;;;;;;;5090013;28;20053;-81
2023/08/05 07:10:24;;;;;;;0.50;0.50;;;;;;;;;;5085964;28;20048;-81
2023/08/05 07:12:50;;;;;;;0.60;0.60;;;;;;;;;;5063985;28;20136;-81
2023/08/05 07:15:16;;;;;;;0.50;0.50;;;;;;;;;;5061344;28;20045;-82
2023/08/05 07:17:42;;;;;;;0.95;0.50;;;;;;;;;;5054933;28;20059;-82
2023/08/05 07:20:08;;;;;;;0.35;0.35;;;;;;;;;;5072551;28;20036;-82
2023/08/05 07:22:35;;;;;;;0.70;0.70;;;;;;;;;;5071948;28;20047;-82
2023/08/05 07:25:01;;;;;;;0.63;0.63;;;;;;;;;;5077584;28;20516;-82
2023/08/05 07:27:28;;;;;;;0.43;0.43;;;;;;;;;;5071360;28;20060;-81
2023/08/05 07:29:54;;;;;;;0.50;0.50;;;;;;;;;;5072293;28;20599;-82
2023/08/05 07:32:20;;;;;;;0.40;0.40;;;;;;;;;;5071835;28;20052;-83
2023/08/05 07:34:47;;;;;;;1.20;1.10;;;;;;;;;;5070837;28;20555;-83
2023/08/05 07:37:14;;;;;;;0.40;0.40;;;;;;;;;;5074203;28;20048;-83
2023/08/05 07:39:46;;;;;;;0.70;0.70;;;;;;;;;;5075247;28;20075;-82
2023/08/05 07:42:14;;;;;;;0.70;0.70;;;;;;;;;;5072391;28;20070;-82
2023/08/05 07:44:42;;;;;;;0.40;0.40;;;;;;;;;;5073488;28;20085;-83
2023/08/05 07:47:09;;;;;;;0.60;0.60;;;;;;;;;;5075964;28;20047;-83
2023/08/05 07:49:37;;;;;;;0.77;0.77;;;;;;;;;;5068453;28;20058;-82
2023/08/05 07:52:04;;;;;;;0.35;0.35;;;;;;;;;;5063819;28;20059;-82
2023/08/05 07:54:30;;;;;;;0.28;0.28;;;;;;;;;;5066913;28;20079;-82
2023/08/05 07:56:58;;;;;;;0.55;0.55;;;;;;;;;;5058670;28;20059;-82
2023/08/05 07:59:25;;;;;;;0.55;0.55;;;;;;;;;;5056560;28;20150;-82
2023/08/05 08:01:54;;;;;;;0.47;0.47;;;;;;;;;;5075997;28;20043;-82
2023/08/05 08:04:21;;;;;;;0.50;0.50;;;;;;;;;;5072295;28;20602;-81
2023/08/05 08:06:47;;;;;;;0.28;0.28;;;;;;;;;;5083641;28;20424;-82
2023/08/05 08:09:13;;;;;;;0.70;0.70;;;;;;;;;;5068578;28;20487;-81
2023/08/05 08:11:40;;;;;;;0.25;0.25;;;;;;;;;;5080864;28;20052;-80
2023/08/05 08:14:06;;;;;;;1.30;1.27;;;;;;;;;;5086251;28;20086;-81
2023/08/05 08:16:33;;;;;;;0.60;0.60;;;;;;;;;;5069058;28;20052;-82
2023/08/05 08:18:59;;;;;;;0.52;0.52;;;18.50;99.90;;;;;;5063669;28;20040;-83
2023/08/05 08:21:25;;;;;;;1.05;1.05;;;;;;;;;;5069680;28;20044;-82
2023/08/05 08:23:51;;;;;;;0.40;0.40;;;;;;;;;;5075377;28;20126;-83
2023/08/05 08:26:17;;;;;;;0.40;0.40;;;;;;;;;;5043222;28;20126;-80
2023/08/05 08:28:43;;;;;;;0.45;0.45;;;;;;;;;;5075449;28;20533;-81
2023/08/05 08:31:09;;;;;;;0.40;0.40;;;;;;;;;;5052453;28;20048;-81
2023/08/05 08:33:35;;;;;;;0.55;0.55;;;;;;;;;;5053025;28;20048;-81
2023/08/05 08:36:01;;;;;;;0.60;0.60;;;;;;;;;;5052334;28;20043;-73
2023/08/05 08:38:27;;;;;;;0.60;0.60;;;;;;;;;;5087539;28;20447;-75
2023/08/05 08:40:57;;;;;;;0.70;0.70;;;;;;;;;;5086972;28;20505;-79
2023/08/05 08:43:23;;;;;;;0.70;0.70;;;19.10;99.90;;;;;;5071522;28;20052;-79
2023/08/05 08:45:52;;;;;;;0.60;0.60;;;;;;;;;;5069021;28;20609;-79
2023/08/05 08:48:19;;;;;;;0.88;0.88;;;;;;;;;;5066501;28;20117;-79
2023/08/05 08:50:48;;;;;;;0.50;0.50;;;;;;;;;;5067713;28;20515;-80
2023/08/05 08:53:14;;;;;;;1.67;0.93;;;;;;;;;;5070163;28;20065;-80
2023/08/05 08:55:43;;;;;;;0.70;0.70;;;;;;;;;;5053689;28;20126;-79
2023/08/05 08:58:10;;;;;;;0.60;0.60;;;;;;;;;;5066125;28;20523;-80
2023/08/05 09:00:36;;;;;;;0.52;0.52;;;;;;;;;;5065193;28;20121;-80
2023/08/05 09:03:04;;;;;;;0.75;0.75;;;;;;;;;;5066177;28;20044;-80
2023/08/05 09:05:35;;;;;;;0.85;0.85;;;;;;;;;;5073727;28;20488;-80
2023/08/05 09:08:03;;;;;;;0.60;0.60;;;20.10;99.90;;;;;;5061246;28;20043;-80
2023/08/05 09:10:28;;;;;;;1.50;0.63;;;20.30;99.90;;;;;;5068871;28;20044;-80
2023/08/05 09:12:57;;;;;;;0.40;0.40;;;;;;;;;;5069910;28;20097;-79
2023/08/05 09:15:31;;;;;;;0.35;0.35;;;;;;;;;;5069476;28;20543;-80
2023/08/05 09:17:58;;;;;;;0.70;0.70;;;;;;;;;;5073890;28;20383;-79
2023/08/05 09:20:24;;;;;;;1.35;1.25;;;20.30;99.90;;;;;;5069513;28;20076;-80
2023/08/05 09:22:55;;;;;;;0.50;0.50;;;;;;;;;;5085299;28;20079;-79
2023/08/05 09:25:21;;;;;;;0.88;0.88;;;;;;;;;;5079674;28;20050;-80
2023/08/05 09:27:47;;;;;;;0.70;0.70;;;;;;;;;;5083768;28;20056;-80
2023/08/05 09:30:15;;;;;;;0.57;0.57;;;20.30;99.90;;;;;;5077281;28;20115;-79
2023/08/05 09:32:43;;;;;;;1.02;0.98;;;;;;;;;;5080065;28;20048;-79
2023/08/05 09:35:10;;;;;;;;;;;;;;;;;;5085673;28;20044;-79
2023/08/05 09:37:40;;;;;;;5.15;1.08;;;;;;;;;;5085045;28;19924;-80
2023/08/05 09:40:39;;;;;;;6.75;0.70;;;;;;;;;;5084873;28;20056;-79
2023/08/05 09:43:07;;;;;;;0.63;0.63;;;;;;;;;;5069836;28;20063;-80
2023/08/05 09:45:33;;;;;;;0.70;0.70;;;20.70;99.90;;;;;;5072357;28;20079;-79
2023/08/05 09:48:10;;;;;;;0.65;0.65;;;;;;;;;;5064889;28;20122;-79
2023/08/05 09:50:37;;;;;;;0.50;0.50;;;;;;;;;;5084678;28;20052;-79
2023/08/05 09:53:08;;;;;;;0.30;0.30;;;20.90;99.90;;;;;;5085366;28;20047;-79
2023/08/05 09:55:38;;;;;;;0.50;0.50;;;;;;;;;;5065025;28;20071;-79
2023/08/05 09:58:07;;;;;;;0.40;0.40;;;20.80;99.90;;;;;;5067632;28;20043;-81
2023/08/05 10:00:35;;;;;;;0.40;0.40;;;;;;;;;;5067191;28;20380;-80
2023/08/05 10:03:07;;;;;;;0.70;0.60;;;;;;;;;;5077492;28;20036;-81
2023/08/05 10:05:34;;;;;;;0.50;0.50;;;;;;;;;;5084667;28;20066;-81
2023/08/05 10:08:00;;;;;;;0.30;0.30;;;;;;;;;;5085444;28;20059;-81
2023/08/05 10:10:29;;;;;;;1.10;0.88;;;;;;;;;;5085199;28;20418;-81
2023/08/05 10:13:04;;;;;;;0.80;0.80;;;20.80;99.90;;;;;;5085181;28;20670;-81
2023/08/05 10:15:32;;;;;;;0.40;0.40;;;;;;;;;;5068091;28;20036;-81
2023/08/05 10:17:59;;;;;;;0.57;0.57;;;;;;;;;;5051183;28;20036;-81
2023/08/05 10:20:24;;;;;;;0.40;0.40;;;20.70;99.90;;;;;;5068488;28;20048;-81
2023/08/05 10:23:23;;;;;;;0.75;0.75;;;20.70;99.90;;;;;;5067169;28;20951;-81
2023/08/05 10:25:50;;;;;;;0.52;0.52;;;;;;;;;;5056617;28;20087;-81
2023/08/05 10:28:25;;;;;;;0.70;0.70;;;;;;;;;;5077766;28;20500;-79
2023/08/05 10:30:52;;;;;;;0.80;0.80;;;;;;;;;;5091659;28;20059;-81
2023/08/05 10:33:18;;;;;;;0.40;0.40;;;20.50;99.90;;;;;;5091479;28;20054;-81
2023/08/05 10:35:45;;;;;;;1.42;1.33;;;;;;;;;;5089545;28;20139;-82
2023/08/05 10:38:10;;;;;;;0.68;0.68;;;20.50;99.90;;;;;;5087533;28;20526;-81
2023/08/05 10:40:46;;;;;;;0.47;0.47;;;;;;;;;;5092231;28;20071;-82
2023/08/05 10:43:25;;;;;;;0.60;0.60;;;;;;;;;;5091813;28;20473;-82
2023/08/05 10:45:51;;;;;;;0.60;0.60;;;;;;;;;;5092643;28;20040;-81
2023/08/05 10:48:17;;;;;;;0.50;0.50;;;21.10;99.90;;;;;;5094174;28;20040;-80
2023/08/05 10:50:43;;;;;;;1.05;0.93;;;21.30;99.90;;;;;;5073944;28;20108;-81
2023/08/05 10:53:12;;;;;;;0.73;0.73;;;21.70;99.90;;;;;;5093040;28;20069;-81
2023/08/05 10:55:55;;;;;;;0.70;0.70;;;21.80;99.90;;;;;;5091102;28;20526;-82
2023/08/05 10:58:23;;;;;;;0.50;0.50;;;21.90;99.90;;;;;;5075752;28;20075;-83
2023/08/05 11:01:09;;;;;;;0.43;0.43;;;22.10;99.90;;;;;;5077136;28;20048;-82
2023/08/05 11:03:49;;;;;;;0.88;0.52;;;22.30;99.90;;;;;;5073803;28;20079;-81
2023/08/05 11:06:21;;;;;;;0.50;0.50;;;22.30;99.90;;;;;;5093641;28;20081;-82
2023/08/05 11:08:48;;;;;;;1.10;1.10;;;22.40;99.90;;;;;;5093741;28;20066;-82
2023/08/05 11:11:14;;;;;;;0.40;0.40;;;22.60;99.90;;;;;;5094886;28;20507;-82
2023/08/05 11:13:45;;;;;;;0.40;0.40;;;22.40;99.90;;;;;;5076463;28;20122;-82
2023/08/05 11:16:11;;;;;;;2.63;1.02;;;22.40;99.90;;;;;;5092932;28;20096;-80
2023/08/05 11:18:39;;;;;;;1.95;0.55;;;;;;;;;;5093290;28;20582;-82
2023/08/05 11:21:06;;;;;;;;;;;22.50;99.90;;;;;;5077829;28;20090;-83
2023/08/05 11:23:32;;;;;;;0.85;0.70;;;22.50;99.90;;;;;;5065647;28;19928;-82
2023/08/05 11:26:02;;;;;;;0.40;0.40;;;22.70;99.90;;;;;;5070945;28;20042;-82
2023/08/05 11:28:29;;;;;;;1.10;0.52;;;22.80;99.90;;;;;;5092430;28;20054;-82
2023/08/05 11:30:55;;;;;;;0.65;0.65;;;22.70;99.90;;;;;;5093029;28;20047;-81
2023/08/05 11:33:21;;;;;;;1.73;1.63;;;22.90;99.90;;;;;;5092594;28;20121;-83
2023/08/05 11:35:48;;;;;;;0.73;0.73;;;22.90;99.90;;;;;;5092032;28;20040;-82
2023/08/05 11:38:19;;;;;;;0.82;0.82;;;22.80;99.90;;;;;;5075767;28;20171;-82
2023/08/05 11:40:47;;;;;;;0.88;0.88;;;22.90;99.90;;;;;;5064733;28;20044;-84
2023/08/05 11:43:21;;;;;;;0.75;0.75;;;22.60;99.90;;;;;;5088805;28;20047;-84
2023/08/05 11:45:48;;;;;;;0.95;0.95;;;22.70;99.90;;;;;;5090594;28;20404;-82
2023/08/05 11:48:26;;;;;;;0.73;0.73;;;23.00;99.90;;;;;;5092228;28;20046;-82
2023/08/05 11:50:58;;;;;;;0.60;0.60;;;23.00;99.90;;;;;;5090249;28;20047;-82
2023/08/05 11:53:25;;;;;;;1.02;1.00;;;22.70;99.90;;;;;;5089518;28;20040;-83
2023/08/05 11:55:51;;;;;;;2.65;1.95;;;23.00;99.90;;;;;;5088717;28;20431;-83
2023/08/05 11:58:18;;;;;;;0.75;0.75;;;22.80;99.90;;;;;;5072649;28;20036;-83
2023/08/05 12:00:49;;;;;;;0.60;0.60;;;22.90;99.90;;;;;;5088029;28;20062;-82
2023/08/05 12:03:15;;;;;;;0.93;0.93;;;22.80;99.90;;;;;;5090137;28;20316;-82
2023/08/05 12:05:45;;;;;;;0.70;0.70;;;22.90;99.90;;;;;;5090622;28;20032;-82
2023/08/05 12:08:12;;;;;;;1.15;1.15;;;23.20;99.90;;;;;;5101774;28;20571;-83
2023/08/05 12:10:39;;;;;;;1.53;1.43;;;23.00;99.90;;;;;;5089887;28;20042;-82
2023/08/05 12:13:08;;;;;;;3.10;1.15;;;23.20;99.90;;;;;;5070973;28;21086;-82
2023/08/05 12:15:35;;;;;;;1.63;1.52;;;23.00;99.90;;;;;;5088867;28;20039;-83
2023/08/05 12:18:08;;;;;;;0.97;0.97;;;22.80;99.90;;;;;;5085783;28;20043;-83
2023/08/05 12:20:36;;;;;;;1.15;1.10;;;23.10;99.90;;;;;;5089323;28;20043;-83
2023/08/05 12:23:03;;;;;;;0.68;0.68;;;23.00;99.90;;;;;;5072447;28;20052;-81
2023/08/05 12:25:30;;;;;;;0.80;0.80;;;22.70;99.90;;;;;;5089629;28;20091;-82
2023/08/05 12:27:56;;;;;;;0.75;0.75;;;22.60;99.90;;;;;;5087553;28;20059;-82
2023/08/05 12:30:22;;;;;;;2.20;2.03;;;22.50;99.90;;;;;;5083318;28;20130;-82
2023/08/05 12:32:48;;;;;;;2.58;1.75;;;22.70;99.90;;;;;;5071498;28;20159;-83
2023/08/05 12:35:14;;;;;;;1.77;1.67;;;22.50;99.90;;;;;;5084955;28;20097;-86
2023/08/05 12:37:41;;;;;;;0.88;0.88;;;22.50;99.90;;;;;;5087737;28;20051;-82
2023/08/05 12:40:09;;;;;;;1.08;1.08;;;22.40;99.90;;;;;;5080386;28;20043;-78
2023/08/05 12:42:35;;;;;;;0.93;0.93;;;22.60;99.90;;;;;;5088974;28;20580;-77
2023/08/05 12:45:03;;;;;;;0.40;0.40;;;22.30;99.90;;;;;;5088291;28;20047;-76
2023/08/05 12:47:30;;;;;;;1.10;1.10;;;;;;;;;;5103338;28;20036;-81
2023/08/05 12:49:56;;;;;;;1.13;1.13;;;22.60;99.90;;;;;;5085123;28;20078;-82
2023/08/05 12:52:21;;;;;;;1.67;1.58;;;22.40;99.90;;;;;;5088539;28;20485;-80
2023/08/05 12:54:47;;;;;;;1.77;1.65;;;22.50;99.90;;;;;;5088889;28;20054;-81
2023/08/05 12:57:13;;;;;;;0.95;0.95;;;22.40;99.90;;;;;;5089306;28;20043;-82
2023/08/05 12:59:38;;;;;;;2.97;2.65;;;22.50;99.90;;;;;;5093271;28;20035;-82
2023/08/05 13:02:04;;;;;;;1.58;1.50;;;22.60;99.90;;;;;;5087997;28;20039;-84
2023/08/05 13:04:30;;;;;;;1.60;1.50;;;22.50;99.90;;;;;;5069380;28;20374;-82
2023/08/05 13:06:55;;;;;;;1.27;1.25;;;22.50;99.90;;;;;;5088021;28;20097;-80
2023/08/05 13:09:22;;;;;;;2.90;2.08;;;;;;;;;;5089338;28;20040;-78
2023/08/05 13:11:48;;;;;;;1.48;1.42;;;22.30;99.90;;;;;;5088125;28;20454;-79
2023/08/05 13:14:15;;;;;;;0.55;0.55;;;22.20;99.90;;;;;;5109346;28;20039;-83
2023/08/05 13:16:41;;;;;;;1.40;0.90;;;22.20;99.90;;;;;;5068835;28;20434;-80
2023/08/05 13:19:07;;;;;;;1.15;1.05;;;22.00;99.90;;;;;;5087793;28;20036;-82
2023/08/05 13:21:36;;;;;;;0.52;0.52;;;21.80;99.90;;;;;;5088321;28;20039;-83
2023/08/05 13:24:05;;;;;;;1.52;1.42;;;;;;;;;;5066363;28;20043;-84
2023/08/05 13:26:31;;;;;;;1.45;1.35;;;21.70;99.90;;;;;;5089028;28;20138;-83
2023/08/05 13:28:57;;;;;;;1.90;1.80;;;21.90;99.90;;;;;;5086932;28;20126;-83
2023/08/05 13:31:25;;;;;;;0.93;0.93;;;22.00;99.90;;;;;;5087151;28;20412;-83
2023/08/05 13:33:52;;;;;;;1.63;1.52;;;21.90;99.90;;;;;;5089857;28;20058;-82
2023/08/05 13:36:17;;;;;;;1.55;1.25;;;21.80;99.90;;;;;;5087603;28;20046;-83
2023/08/05 13:38:44;;;;;;;1.30;1.30;;;21.70;99.90;;;;;;5072529;28;20036;-83
2023/08/05 13:41:12;;;;;;;4.03;0.77;;;21.70;99.90;;;;;;5088360;28;20047;-83
2023/08/05 13:43:38;;;;;;;1.45;1.35;;;21.70;99.90;;;;;;5083669;28;20131;-83
2023/08/05 13:46:04;;;;;;;1.35;1.27;;;;;;;;;;5087227;28;20119;-83
2023/08/05 13:48:35;;;;;;;2.60;2.40;;;21.70;99.90;;;;;;5087756;28;20500;-83
2023/08/05 13:51:07;;;;;;;3.70;1.92;;;21.40;99.90;;;;;;5087885;28;20505;-83
2023/08/05 13:53:33;;;;;;;1.48;1.38;;;21.30;99.90;;;;;;5071404;28;20080;-84
2023/08/05 13:55:59;;;;;;;0.93;0.93;;;21.20;99.90;;;;;;5089315;28;20079;-83
2023/08/05 13:58:25;;;;;;;2.40;2.20;;;21.30;99.90;;;;;;5088916;28;20050;-83
2023/08/05 14:00:54;;;;;;;1.05;1.05;;;21.20;99.90;;;;;;5086213;28;20035;-82
2023/08/05 14:03:20;;;;;;;1.08;1.05;;;21.10;99.90;;;;;;5091530;28;20040;-83
2023/08/05 14:05:50;;;;;;;0.75;0.75;;;21.00;99.90;;;;;;5091186;28;20043;-83
2023/08/05 14:08:15;;;;;;;0.98;0.98;;;21.30;99.90;;;;;;5087305;28;20044;-83
2023/08/05 14:10:47;;;;;;;0.95;0.90;;;;;;;;;;5085546;28;20050;-84